createdAt,value
2018-07-14T00:00:57.802Z,1010.19
2018-07-14T00:01:57.912Z,1010.19
2018-07-14T00:03:07.851Z,1010.19
2018-07-14T00:04:13.992Z,1010.20
2018-07-14T00:05:15.546Z,1010.17
2018-07-14T00:06:26.605Z,1010.18
2018-07-14T00:08:31.993Z,1010.20
2018-07-14T00:09:37.179Z,1010.15
2018-07-14T00:10:41.797Z,1010.19
2018-07-14T00:11:48.866Z,1010.21
2018-07-14T00:13:56.559Z,1010.18
2018-07-14T00:15:08.001Z,1010.20
2018-07-14T00:16:13.265Z,1010.15
2018-07-14T00:17:20.543Z,1010.16
2018-07-14T00:18:24.226Z,1010.16
2018-07-14T00:20:28.556Z,1010.19
2018-07-14T00:21:42.281Z,1010.18
2018-07-14T00:22:44.128Z,1010.17
2018-07-14T00:23:52.123Z,1010.16
2018-07-14T00:25:00.017Z,1010.16
2018-07-14T00:25:59.405Z,1010.16
2018-07-14T00:27:07.298Z,1010.14
2018-07-14T00:28:21.644Z,1010.14
2018-07-14T00:29:21.646Z,1010.16
2018-07-14T00:30:22.576Z,1010.12
2018-07-14T00:31:32.999Z,1010.16
2018-07-14T00:32:37.540Z,1010.08
2018-07-14T00:33:33.450Z,1010.13
2018-07-14T00:34:42.673Z,1010.16
2018-07-14T00:36:55.693Z,1010.13
2018-07-14T00:37:58.975Z,1010.13
2018-07-14T00:39:10.290Z,1010.11
2018-07-14T00:40:13.849Z,1010.17
2018-07-14T00:41:19.068Z,1010.12
2018-07-14T00:43:25.639Z,1010.13
2018-07-14T00:44:32.092Z,1010.16
2018-07-14T00:45:33.123Z,1010.16
2018-07-14T00:46:46.237Z,1010.12
2018-07-14T00:47:55.877Z,1010.15
2018-07-14T00:48:55.980Z,1010.12
2018-07-14T00:49:59.159Z,1010.10
2018-07-14T00:51:10.535Z,1010.12
2018-07-14T00:52:10.651Z,1010.11
2018-07-14T00:54:27.798Z,1010.13
2018-07-14T00:55:34.216Z,1010.11
2018-07-14T00:56:27.979Z,1010.11
2018-07-14T00:57:43.007Z,1010.13
2018-07-14T00:58:43.453Z,1010.11
2018-07-14T00:59:57.282Z,1010.11
2018-07-14T01:00:58.314Z,1010.14
2018-07-14T01:02:05.489Z,1010.12
2018-07-14T01:04:15.743Z,1010.11
2018-07-14T01:05:25.580Z,1010.10
2018-07-14T01:06:28.350Z,1010.09
2018-07-14T01:07:29.382Z,1010.09
2018-07-14T01:08:37.682Z,1010.13
2018-07-14T01:09:39.635Z,1010.11
2018-07-14T01:10:42.817Z,1010.17
2018-07-14T01:11:58.697Z,1010.15
2018-07-14T01:12:56.655Z,1010.14
2018-07-14T01:13:57.993Z,1010.12
2018-07-14T01:15:07.012Z,1010.15
2018-07-14T01:16:13.015Z,1010.15
2018-07-14T01:18:26.080Z,1010.19
2018-07-14T01:19:32.015Z,1010.15
2018-07-14T01:20:38.482Z,1010.15
2018-07-14T01:22:48.838Z,1010.14
2018-07-14T01:23:51.099Z,1010.17
2018-07-14T01:24:55.199Z,1010.18
2018-07-14T01:26:03.194Z,1010.17
2018-07-14T01:27:11.291Z,1010.18
2018-07-14T01:28:19.184Z,1010.18
2018-07-14T01:29:27.016Z,1010.16
2018-07-14T01:30:28.309Z,1010.17
2018-07-14T01:32:44.819Z,1010.24
2018-07-14T01:33:38.774Z,1010.21
2018-07-14T01:34:47.487Z,1010.21
2018-07-14T01:35:59.371Z,1010.24
2018-07-14T01:37:06.548Z,1010.22
2018-07-14T01:39:10.021Z,1010.18
2018-07-14T01:40:25.381Z,1010.19
2018-07-14T01:41:22.549Z,1010.19
2018-07-14T01:42:25.426Z,1010.20
2018-07-14T01:44:33.020Z,1010.16
2018-07-14T01:45:44.081Z,1010.18
2018-07-14T01:46:59.666Z,1010.16
2018-07-14T01:48:03.351Z,1010.19
2018-07-14T01:49:59.465Z,1010.20
2018-07-14T01:51:11.328Z,1010.18
2018-07-14T01:52:20.677Z,1010.20
2018-07-14T01:53:18.850Z,1010.18
2018-07-14T01:54:29.803Z,1010.17
2018-07-14T01:56:35.757Z,1010.18
2018-07-14T01:57:39.860Z,1010.18
2018-07-14T01:58:54.100Z,1010.21
2018-07-14T01:59:50.013Z,1010.22
2018-07-14T02:01:02.306Z,1010.21
2018-07-14T02:03:06.927Z,1010.20
2018-07-14T02:04:13.385Z,1010.23
2018-07-14T02:05:17.085Z,1010.25
2018-07-14T02:06:32.856Z,1010.19
2018-07-14T02:07:29.280Z,1010.22
2018-07-14T02:08:38.296Z,1010.21
2018-07-14T02:09:51.721Z,1010.21
2018-07-14T02:10:54.079Z,1010.23
2018-07-14T02:11:59.410Z,1010.20
2018-07-14T02:14:06.178Z,1010.21
2018-07-14T02:15:17.030Z,1010.20
2018-07-14T02:16:22.582Z,1010.18
2018-07-14T02:17:16.136Z,1010.21
2018-07-14T02:18:24.540Z,1010.23
2018-07-14T02:19:42.466Z,1010.24
2018-07-14T02:20:42.883Z,1010.19
2018-07-14T02:21:46.372Z,1010.22
2018-07-14T02:23:53.035Z,1010.24
2018-07-14T02:25:01.445Z,1010.23
2018-07-14T02:26:04.728Z,1010.20
2018-07-14T02:27:07.705Z,1010.25
2018-07-14T02:28:20.034Z,1010.25
2018-07-14T02:29:24.721Z,1010.25
2018-07-14T02:31:43.675Z,1010.27
2018-07-14T02:32:40.405Z,1010.28
2018-07-14T02:33:42.255Z,1010.32
2018-07-14T02:34:56.803Z,1010.33
2018-07-14T02:35:56.038Z,1010.34
2018-07-14T02:38:08.395Z,1010.35
2018-07-14T02:40:25.920Z,1010.34
2018-07-14T02:41:32.793Z,1010.41
2018-07-14T02:42:35.569Z,1010.41
2018-07-14T02:43:40.173Z,1010.41
2018-07-14T02:44:42.039Z,1010.45
2018-07-14T02:45:50.940Z,1010.43
2018-07-14T02:46:49.820Z,1010.35
2018-07-14T02:48:09.998Z,1010.39
2018-07-14T02:49:07.958Z,1010.38
2018-07-14T02:50:10.731Z,1010.40
2018-07-14T02:51:11.043Z,1010.41
2018-07-14T02:52:22.109Z,1010.42
2018-07-14T02:54:22.847Z,1010.43
2018-07-14T02:55:38.001Z,1010.41
2018-07-14T02:56:40.876Z,1010.43
2018-07-14T02:58:00.044Z,1010.46
2018-07-14T02:58:51.744Z,1010.46
2018-07-14T02:59:59.636Z,1010.46
2018-07-14T03:01:04.046Z,1010.47
2018-07-14T03:02:13.884Z,1010.43
2018-07-14T03:03:19.624Z,1010.48
2018-07-14T03:04:18.401Z,1010.43
2018-07-14T03:05:24.471Z,1010.47
2018-07-14T03:06:25.481Z,1010.46
2018-07-14T03:07:41.872Z,1010.41
2018-07-14T03:08:38.845Z,1010.44
2018-07-14T03:09:53.461Z,1010.42
2018-07-14T03:10:54.692Z,1010.38
2018-07-14T03:11:53.164Z,1010.41
2018-07-14T03:13:13.871Z,1010.44
2018-07-14T03:14:06.211Z,1010.40
2018-07-14T03:15:26.978Z,1010.42
2018-07-14T03:16:23.610Z,1010.44
2018-07-14T03:17:43.272Z,1010.38
2018-07-14T03:20:55.377Z,1010.39
2018-07-14T03:21:46.067Z,1010.39
2018-07-14T03:24:00.413Z,1010.34
2018-07-14T03:26:04.052Z,1010.29
2018-07-14T03:27:24.498Z,1010.28
2018-07-14T03:28:22.055Z,1010.28
2018-07-14T03:29:22.062Z,1010.28
2018-07-14T03:30:34.965Z,1010.29
2018-07-14T03:31:35.687Z,1010.29
2018-07-14T03:32:47.471Z,1010.28
2018-07-14T03:33:40.617Z,1010.30
2018-07-14T03:34:58.133Z,1010.30
2018-07-14T03:35:59.369Z,1010.30
2018-07-14T03:38:07.472Z,1010.30
2018-07-14T03:39:14.545Z,1010.34
2018-07-14T03:40:23.358Z,1010.30
2018-07-14T03:41:19.577Z,1010.30
2018-07-14T03:42:31.563Z,1010.29
2018-07-14T03:43:36.391Z,1010.28
2018-07-14T03:44:48.222Z,1010.29
2018-07-14T03:45:55.443Z,1010.27
2018-07-14T03:46:58.009Z,1010.27
2018-07-14T03:48:20.062Z,1010.24
2018-07-14T03:49:08.265Z,1010.27
2018-07-14T03:50:12.673Z,1010.28
2018-07-14T03:51:20.060Z,1010.29
2018-07-14T03:53:32.049Z,1010.25
2018-07-14T03:54:33.393Z,1010.25
2018-07-14T03:55:48.038Z,1010.25
2018-07-14T03:56:39.338Z,1010.29
2018-07-14T03:58:05.767Z,1010.27
2018-07-14T03:58:58.707Z,1010.28
2018-07-14T04:00:08.034Z,1010.28
2018-07-14T04:01:11.930Z,1010.28
2018-07-14T04:02:10.092Z,1010.27
2018-07-14T04:03:23.006Z,1010.26
2018-07-14T04:05:33.052Z,1010.30
2018-07-14T04:06:45.757Z,1010.31
2018-07-14T04:07:50.269Z,1010.32
2018-07-14T04:08:52.644Z,1010.26
2018-07-14T04:09:51.101Z,1010.27
2018-07-14T04:10:53.872Z,1010.29
2018-07-14T04:12:13.439Z,1010.25
2018-07-14T04:13:10.272Z,1010.27
2018-07-14T04:14:06.274Z,1010.27
2018-07-14T04:15:21.855Z,1010.26
2018-07-14T04:16:27.187Z,1010.26
2018-07-14T04:17:30.984Z,1010.27
2018-07-14T04:18:43.892Z,1010.34
2018-07-14T04:22:06.440Z,1010.33
2018-07-14T04:23:03.079Z,1010.32
2018-07-14T04:24:04.074Z,1010.32
2018-07-14T04:26:15.991Z,1010.31
2018-07-14T04:27:19.171Z,1010.28
2018-07-14T04:28:27.064Z,1010.26
2018-07-14T04:29:29.835Z,1010.29
2018-07-14T04:30:37.726Z,1010.30
2018-07-14T04:31:39.371Z,1010.33
2018-07-14T04:33:06.415Z,1010.31
2018-07-14T04:34:51.085Z,1010.31
2018-07-14T04:36:07.661Z,1010.35
2018-07-14T04:37:17.293Z,1010.36
2018-07-14T04:38:20.785Z,1010.32
2018-07-14T04:39:18.936Z,1010.35
2018-07-14T04:40:37.075Z,1010.33
2018-07-14T04:41:26.230Z,1010.35
2018-07-14T04:42:46.308Z,1010.34
2018-07-14T04:43:31.466Z,1010.35
2018-07-14T04:45:55.647Z,1010.39
2018-07-14T04:47:07.637Z,1010.40
2018-07-14T04:48:05.493Z,1010.38
2018-07-14T04:49:08.885Z,1010.40
2018-07-14T04:51:25.070Z,1010.42
2018-07-14T04:52:25.087Z,1010.38
2018-07-14T04:53:32.867Z,1010.38
2018-07-14T04:54:43.932Z,1010.41
2018-07-14T04:55:54.749Z,1010.42
2018-07-14T04:56:41.356Z,1010.40
2018-07-14T04:57:56.956Z,1010.36
2018-07-14T04:59:03.825Z,1010.39
2018-07-14T05:00:01.783Z,1010.40
2018-07-14T05:01:21.760Z,1010.39
2018-07-14T05:02:18.082Z,1010.43
2018-07-14T05:04:25.055Z,1010.42
2018-07-14T05:05:40.422Z,1010.40
2018-07-14T05:08:51.971Z,1010.36
2018-07-14T05:11:16.195Z,1010.36
2018-07-14T05:12:07.190Z,1010.36
2018-07-14T05:13:17.948Z,1010.34
2018-07-14T05:15:23.707Z,1010.37
2018-07-14T05:16:32.089Z,1010.40
2018-07-14T05:17:41.837Z,1010.33
2018-07-14T05:18:42.355Z,1010.35
2018-07-14T05:19:51.883Z,1010.39
2018-07-14T05:20:52.316Z,1010.36
2018-07-14T05:21:54.459Z,1010.35
2018-07-14T05:23:01.121Z,1010.38
2018-07-14T05:24:08.194Z,1010.37
2018-07-14T05:25:14.089Z,1010.37
2018-07-14T05:26:26.435Z,1010.38
2018-07-14T05:27:27.263Z,1010.36
2018-07-14T05:28:30.562Z,1010.41
2018-07-14T05:30:42.231Z,1010.36
2018-07-14T05:31:47.357Z,1010.39
2018-07-14T05:32:55.966Z,1010.41
2018-07-14T05:33:54.845Z,1010.38
2018-07-14T05:35:02.438Z,1010.41
2018-07-14T05:35:59.160Z,1010.36
2018-07-14T05:37:12.581Z,1010.39
2018-07-14T05:38:16.174Z,1010.39
2018-07-14T05:39:23.452Z,1010.36
2018-07-14T05:40:36.461Z,1010.37
2018-07-14T05:41:28.570Z,1010.38
2018-07-14T05:42:38.624Z,1010.36
2018-07-14T05:43:47.949Z,1010.39
2018-07-14T05:44:50.415Z,1010.38
2018-07-14T05:45:55.230Z,1010.39
2018-07-14T05:47:04.868Z,1010.37
2018-07-14T05:48:15.626Z,1010.38
2018-07-14T05:49:12.971Z,1010.40
2018-07-14T05:50:28.337Z,1010.38
2018-07-14T05:51:24.864Z,1010.39
2018-07-14T05:52:32.549Z,1010.34
2018-07-14T05:54:41.480Z,1010.40
2018-07-14T05:55:51.103Z,1010.41
2018-07-14T05:57:53.576Z,1010.45
2018-07-14T05:59:04.450Z,1010.42
2018-07-14T06:00:11.715Z,1010.44
2018-07-14T06:01:18.788Z,1010.48
2018-07-14T06:02:14.099Z,1010.46
2018-07-14T06:03:28.016Z,1010.48
2018-07-14T06:04:30.890Z,1010.47
2018-07-14T06:05:39.108Z,1010.45
2018-07-14T06:06:56.915Z,1010.45
2018-07-14T06:07:59.337Z,1010.46
2018-07-14T06:08:59.895Z,1010.46
2018-07-14T06:09:52.836Z,1010.47
2018-07-14T06:11:11.891Z,1010.46
2018-07-14T06:12:06.061Z,1010.50
2018-07-14T06:13:14.259Z,1010.52
2018-07-14T06:14:22.184Z,1010.56
2018-07-14T06:16:34.146Z,1010.53
2018-07-14T06:17:30.568Z,1010.56
2018-07-14T06:18:40.817Z,1010.53
2018-07-14T06:19:47.989Z,1010.52
2018-07-14T06:20:53.423Z,1010.51
2018-07-14T06:23:10.750Z,1010.55
2018-07-14T06:24:01.637Z,1010.58
2018-07-14T06:25:12.611Z,1010.59
2018-07-14T06:26:18.652Z,1010.56
2018-07-14T06:27:22.856Z,1010.58
2018-07-14T06:28:31.257Z,1010.57
2018-07-14T06:29:42.394Z,1010.57
2018-07-14T06:30:47.655Z,1010.54
2018-07-14T06:32:49.818Z,1010.59
2018-07-14T06:33:54.332Z,1010.53
2018-07-14T06:34:59.766Z,1010.57
2018-07-14T06:36:13.084Z,1010.61
2018-07-14T06:37:15.959Z,1010.60
2018-07-14T06:39:26.520Z,1010.59
2018-07-14T06:40:42.917Z,1010.60
2018-07-14T06:41:41.485Z,1010.58
2018-07-14T06:42:44.562Z,1010.59
2018-07-14T06:43:48.359Z,1010.58
2018-07-14T06:44:56.867Z,1010.62
2018-07-14T06:45:59.024Z,1010.60
2018-07-14T06:47:15.311Z,1010.64
2018-07-14T06:48:08.660Z,1010.62
2018-07-14T06:49:18.088Z,1010.60
2018-07-14T06:50:19.016Z,1010.60
2018-07-14T06:51:21.489Z,1010.65
2018-07-14T06:52:30.806Z,1010.60
2018-07-14T06:53:39.312Z,1010.61
2018-07-14T06:54:47.819Z,1010.59
2018-07-14T06:55:54.788Z,1010.59
2018-07-14T06:57:00.735Z,1010.60
2018-07-14T06:57:57.569Z,1010.63
2018-07-14T06:59:01.875Z,1010.61
2018-07-14T07:00:14.170Z,1010.62
2018-07-14T07:01:21.140Z,1010.60
2018-07-14T07:03:40.302Z,1010.66
2018-07-14T07:04:28.123Z,1010.64
2018-07-14T07:05:46.462Z,1010.66
2018-07-14T07:06:44.112Z,1010.64
2018-07-14T07:07:54.767Z,1010.63
2018-07-14T07:09:05.732Z,1010.71
2018-07-14T07:10:03.092Z,1010.63
2018-07-14T07:11:03.493Z,1010.68
2018-07-14T07:12:16.121Z,1010.65
2018-07-14T07:13:14.770Z,1010.68
2018-07-14T07:14:23.789Z,1010.67
2018-07-14T07:15:35.878Z,1010.69
2018-07-14T07:17:43.982Z,1010.72
2018-07-14T07:18:47.777Z,1010.80
2018-07-14T07:19:50.856Z,1010.75
2018-07-14T07:21:00.795Z,1010.77
2018-07-14T07:22:07.254Z,1010.79
2018-07-14T07:23:14.429Z,1010.82
2018-07-14T07:24:11.124Z,1010.78
2018-07-14T07:25:23.248Z,1010.80
2018-07-14T07:27:37.906Z,1010.82
2018-07-14T07:28:39.199Z,1010.86
2018-07-14T07:29:44.371Z,1010.86
2018-07-14T07:30:44.179Z,1010.85
2018-07-14T07:31:57.287Z,1010.86
2018-07-14T07:33:01.701Z,1010.83
2018-07-14T07:33:59.594Z,1010.89
2018-07-14T07:35:08.983Z,1010.87
2018-07-14T07:36:15.356Z,1010.87
2018-07-14T07:37:21.187Z,1010.86
2018-07-14T07:38:32.500Z,1010.83
2018-07-14T07:39:39.729Z,1010.87
2018-07-14T07:41:39.128Z,1010.86
2018-07-14T07:43:57.132Z,1010.87
2018-07-14T07:44:56.350Z,1010.88
2018-07-14T07:46:01.273Z,1010.87
2018-07-14T07:47:11.826Z,1010.90
2018-07-14T07:48:11.636Z,1010.86
2018-07-14T07:49:20.955Z,1010.88
2018-07-14T07:53:43.614Z,1010.79
2018-07-14T07:54:43.004Z,1010.81
2018-07-14T07:55:57.135Z,1010.79
2018-07-14T07:56:57.353Z,1010.78
2018-07-14T07:58:07.089Z,1010.79
2018-07-14T07:59:13.957Z,1010.77
2018-07-14T08:00:20.930Z,1010.78
2018-07-14T08:01:24.517Z,1010.80
2018-07-14T08:02:30.155Z,1010.78
2018-07-14T08:03:36.614Z,1010.78
2018-07-14T08:05:48.411Z,1010.77
2018-07-14T08:06:59.471Z,1010.77
2018-07-14T08:08:01.629Z,1010.76
2018-07-14T08:10:03.383Z,1010.76
2018-07-14T08:11:05.131Z,1010.73
2018-07-14T08:12:20.707Z,1010.71
2018-07-14T08:13:25.318Z,1010.75
2018-07-14T08:14:30.544Z,1010.77
2018-07-14T08:15:35.261Z,1010.76
2018-07-14T08:16:42.847Z,1010.77
2018-07-14T08:17:48.895Z,1010.77
2018-07-14T08:18:52.895Z,1010.78
2018-07-14T08:22:08.891Z,1010.80
2018-07-14T08:24:18.839Z,1010.79
2018-07-14T08:25:20.583Z,1010.76
2018-07-14T08:26:35.133Z,1010.78
2018-07-14T08:27:43.127Z,1010.77
2018-07-14T08:28:42.517Z,1010.78
2018-07-14T08:29:47.529Z,1010.75
2018-07-14T08:31:57.900Z,1010.82
2018-07-14T08:33:00.987Z,1010.84
2018-07-14T08:34:10.227Z,1010.81
2018-07-14T08:35:18.094Z,1010.85
2018-07-14T08:37:36.946Z,1010.83
2018-07-14T08:38:43.406Z,1010.83
2018-07-14T08:39:38.294Z,1010.83
2018-07-14T08:42:07.607Z,1010.83
2018-07-14T08:43:06.370Z,1010.78
2018-07-14T08:44:02.895Z,1010.84
2018-07-14T08:45:23.486Z,1010.81
2018-07-14T08:46:23.081Z,1010.83
2018-07-14T08:48:38.456Z,1010.83
2018-07-14T08:49:29.246Z,1010.81
2018-07-14T08:52:52.412Z,1010.84
2018-07-14T08:53:42.892Z,1010.85
2018-07-14T08:55:00.309Z,1010.87
2018-07-14T08:56:03.591Z,1010.86
2018-07-14T08:57:16.911Z,1010.83
2018-07-14T08:59:23.069Z,1010.86
2018-07-14T09:01:39.165Z,1010.85
2018-07-14T09:03:52.894Z,1010.86
2018-07-14T09:05:13.484Z,1010.81
2018-07-14T09:06:39.193Z,1010.85
2018-07-14T09:08:36.342Z,1010.87
2018-07-14T09:09:38.707Z,1010.85
2018-07-14T09:10:49.254Z,1010.90
2018-07-14T09:11:51.002Z,1010.86
2018-07-14T09:12:51.932Z,1010.88
2018-07-14T09:13:50.299Z,1010.84
2018-07-14T09:16:02.704Z,1010.90
2018-07-14T09:17:48.688Z,1010.85
2018-07-14T09:18:26.270Z,1010.81
2018-07-14T09:19:22.160Z,1010.79
2018-07-14T09:21:53.330Z,1010.82
2018-07-14T09:22:45.162Z,1010.81
2018-07-14T09:24:04.908Z,1010.80
2018-07-14T09:25:12.492Z,1010.78
2018-07-14T09:25:59.216Z,1010.78
2018-07-14T09:27:02.165Z,1010.72
2018-07-14T09:28:18.250Z,1010.69
2018-07-14T09:29:15.286Z,1010.71
2018-07-14T09:30:24.202Z,1010.66
2018-07-14T09:31:19.398Z,1010.67
2018-07-14T09:33:22.164Z,1010.69
2018-07-14T09:34:34.470Z,1010.66
2018-07-14T09:36:55.566Z,1010.63
2018-07-14T09:37:59.935Z,1010.65
2018-07-14T09:41:01.951Z,1010.59
2018-07-14T09:42:14.042Z,1010.62
2018-07-14T09:44:26.242Z,1010.63
2018-07-14T09:45:32.187Z,1010.61
2018-07-14T09:46:30.350Z,1010.62
2018-07-14T09:47:40.355Z,1010.58
2018-07-14T09:48:44.292Z,1010.56
2018-07-14T09:49:56.483Z,1010.50
2018-07-14T09:52:04.802Z,1010.53
2018-07-14T09:53:08.587Z,1010.52
2018-07-14T09:54:07.365Z,1010.52
2018-07-14T09:55:21.867Z,1010.53
2018-07-14T09:56:27.040Z,1010.52
2018-07-14T09:57:33.908Z,1010.49
2018-07-14T09:58:43.028Z,1010.48
2018-07-14T09:59:43.649Z,1010.48
2018-07-14T10:00:51.033Z,1010.46
2018-07-14T10:01:50.216Z,1010.46
2018-07-14T10:03:06.710Z,1010.48
2018-07-14T10:04:04.260Z,1010.47
2018-07-14T10:05:12.355Z,1010.48
2018-07-14T10:06:28.338Z,1010.44
2018-07-14T10:08:25.382Z,1010.43
2018-07-14T10:09:43.512Z,1010.43
2018-07-14T10:10:41.792Z,1010.40
2018-07-14T10:12:48.960Z,1010.34
2018-07-14T10:13:56.654Z,1010.36
2018-07-14T10:14:54.203Z,1010.37
2018-07-14T10:16:05.058Z,1010.34
2018-07-14T10:17:14.281Z,1010.36
2018-07-14T10:18:08.960Z,1010.35
2018-07-14T10:19:20.129Z,1010.38
2018-07-14T10:20:25.564Z,1010.32
2018-07-14T10:21:28.645Z,1010.34
2018-07-14T10:22:47.491Z,1010.31
2018-07-14T10:23:43.402Z,1010.32
2018-07-14T10:24:56.619Z,1010.31
2018-07-14T10:26:00.718Z,1010.28
2018-07-14T10:26:57.763Z,1010.29
2018-07-14T10:28:11.077Z,1010.26
2018-07-14T10:29:08.677Z,1010.27
2018-07-14T10:30:44.884Z,1010.28
2018-07-14T10:31:18.594Z,1010.28
2018-07-14T10:32:29.648Z,1010.26
2018-07-14T10:33:29.034Z,1010.23
2018-07-14T10:34:45.426Z,1010.23
2018-07-14T10:35:54.134Z,1010.21
2018-07-14T10:36:46.461Z,1010.25
2018-07-14T10:39:03.779Z,1010.23
2018-07-14T10:39:57.846Z,1010.19
2018-07-14T10:42:09.850Z,1010.20
2018-07-14T10:43:19.473Z,1010.19
2018-07-14T10:44:25.727Z,1010.19
2018-07-14T10:45:25.122Z,1010.20
2018-07-14T10:47:48.787Z,1010.20
2018-07-14T10:48:43.371Z,1010.20
2018-07-14T10:49:56.379Z,1010.21
2018-07-14T10:51:05.815Z,1010.23
2018-07-14T10:53:20.873Z,1010.15
2018-07-14T10:54:12.894Z,1010.20
2018-07-14T10:55:23.348Z,1010.17
2018-07-14T10:56:28.982Z,1010.20
2018-07-14T10:57:48.856Z,1010.20
2018-07-14T10:58:31.761Z,1010.14
2018-07-14T10:59:45.286Z,1010.17
2018-07-14T11:00:51.438Z,1010.13
2018-07-14T11:02:00.146Z,1010.13
2018-07-14T11:02:58.207Z,1010.16
2018-07-14T11:05:11.739Z,1010.23
2018-07-14T11:06:19.425Z,1010.20
2018-07-14T11:07:22.411Z,1010.19
2018-07-14T11:08:30.395Z,1010.17
2018-07-14T11:10:52.220Z,1010.19
2018-07-14T11:11:39.844Z,1010.13
2018-07-14T11:12:57.154Z,1010.09
2018-07-14T11:14:05.245Z,1010.11
2018-07-14T11:15:10.578Z,1010.04
2018-07-14T11:16:09.559Z,1010.07
2018-07-14T11:18:26.674Z,1010.01
2018-07-14T11:19:45.934Z,1010.01
2018-07-14T11:21:04.073Z,1010.03
2018-07-14T11:21:36.017Z,1010.00
2018-07-14T11:22:57.835Z,1010.04
2018-07-14T11:27:19.158Z,1010.09
2018-07-14T11:28:10.984Z,1010.08
2018-07-14T11:29:26.239Z,1010.11
2018-07-14T11:30:38.020Z,1010.09
2018-07-14T11:33:41.933Z,1010.03
2018-07-14T11:35:55.666Z,1010.03
2018-07-14T11:37:16.460Z,1010.00
2018-07-14T11:38:01.109Z,1009.95
2018-07-14T11:39:02.039Z,1009.98
2018-07-14T11:40:22.982Z,1009.97
2018-07-14T11:41:14.542Z,1009.98
2018-07-14T11:42:21.513Z,1009.99
2018-07-14T11:44:33.926Z,1009.95
2018-07-14T11:45:54.404Z,1009.95
2018-07-14T11:48:05.686Z,1009.93
2018-07-14T11:49:05.078Z,1009.97
2018-07-14T11:50:10.722Z,1009.99
2018-07-14T11:51:28.436Z,1009.97
2018-07-14T11:52:36.435Z,1009.94
2018-07-14T11:53:41.350Z,1009.92
2018-07-14T11:54:24.677Z,1009.88
2018-07-14T11:55:42.499Z,1009.87
2018-07-14T11:56:22.428Z,1009.87
2018-07-14T11:57:32.884Z,1009.88
2018-07-14T11:59:08.931Z,1009.88
2018-07-14T11:59:59.722Z,1009.84
2018-07-14T12:00:47.850Z,1009.84
2018-07-14T12:02:12.638Z,1009.82
2018-07-14T12:03:08.754Z,1009.80
2018-07-14T12:04:15.212Z,1009.74
2018-07-14T12:05:10.098Z,1009.76
2018-07-14T12:07:23.069Z,1009.76
2018-07-14T12:08:36.231Z,1009.73
2018-07-14T12:09:55.283Z,1009.73
2018-07-14T12:10:39.725Z,1009.69
2018-07-14T12:11:51.509Z,1009.72
2018-07-14T12:12:51.938Z,1009.72
2018-07-14T12:13:54.089Z,1009.69
2018-07-14T12:16:02.288Z,1009.64
2018-07-14T12:17:17.861Z,1009.58
2018-07-14T12:19:35.589Z,1009.58
2018-07-14T12:20:31.603Z,1009.62
2018-07-14T12:21:41.338Z,1009.61
2018-07-14T12:22:45.440Z,1009.59
2018-07-14T12:23:54.666Z,1009.55
2018-07-14T12:24:52.621Z,1009.54
2018-07-14T12:26:09.934Z,1009.55
2018-07-14T12:26:53.149Z,1009.52
2018-07-14T12:28:13.326Z,1009.52
2018-07-14T12:29:13.989Z,1009.48
2018-07-14T12:30:22.449Z,1009.47
2018-07-14T12:31:34.647Z,1009.43
2018-07-14T12:32:37.223Z,1009.44
2018-07-14T12:33:43.065Z,1009.40
2018-07-14T12:34:47.161Z,1009.43
2018-07-14T12:37:05.095Z,1009.44
2018-07-14T12:38:05.715Z,1009.47
2018-07-14T12:39:06.857Z,1009.46
2018-07-14T12:40:09.928Z,1009.43
2018-07-14T12:42:19.266Z,1009.39
2018-07-14T12:43:27.513Z,1009.40
2018-07-14T12:44:37.399Z,1009.41
2018-07-14T12:45:39.042Z,1009.43
2018-07-14T12:46:49.296Z,1009.43
2018-07-14T12:47:55.645Z,1009.39
2018-07-14T12:48:54.833Z,1009.36
2018-07-14T12:50:00.267Z,1009.39
2018-07-14T12:51:03.345Z,1009.36
2018-07-14T12:52:07.243Z,1009.31
2018-07-14T12:55:34.403Z,1009.28
2018-07-14T12:56:50.177Z,1009.26
2018-07-14T12:57:37.185Z,1009.23
2018-07-14T12:58:52.956Z,1009.23
2018-07-14T12:59:55.352Z,1009.24
2018-07-14T13:01:03.316Z,1009.24
2018-07-14T13:02:07.724Z,1009.25
2018-07-14T13:03:09.571Z,1009.23
2018-07-14T13:04:11.320Z,1009.21
2018-07-14T13:05:22.794Z,1009.20
2018-07-14T13:06:33.873Z,1009.24
2018-07-14T13:07:37.705Z,1009.21
2018-07-14T13:08:47.597Z,1009.21
2018-07-14T13:10:54.470Z,1009.22
2018-07-14T13:11:53.557Z,1009.20
2018-07-14T13:13:02.164Z,1009.15
2018-07-14T13:14:11.080Z,1009.17
2018-07-14T13:15:06.376Z,1009.18
2018-07-14T13:16:26.353Z,1009.14
2018-07-14T13:17:26.665Z,1009.11
2018-07-14T13:18:31.283Z,1009.11
2018-07-14T13:19:37.226Z,1009.07
2018-07-14T13:20:40.100Z,1009.08
2018-07-14T13:21:44.305Z,1009.01
2018-07-14T13:22:53.633Z,1009.04
2018-07-14T13:26:14.031Z,1009.02
2018-07-14T13:27:11.988Z,1009.04
2018-07-14T13:28:24.601Z,1009.01
2018-07-14T13:29:22.660Z,1009.00
2018-07-14T13:30:31.362Z,1009.05
2018-07-14T13:31:40.892Z,1009.05
2018-07-14T13:32:36.086Z,1009.01
2018-07-14T13:33:49.712Z,1009.00
2018-07-14T13:35:50.245Z,1008.95
2018-07-14T13:37:07.755Z,1008.98
2018-07-14T13:38:17.695Z,1008.99
2018-07-14T13:39:16.781Z,1008.92
2018-07-14T13:40:14.741Z,1008.94
2018-07-14T13:42:33.185Z,1008.90
2018-07-14T13:43:34.421Z,1008.87
2018-07-14T13:45:43.550Z,1008.84
2018-07-14T13:46:49.904Z,1008.81
2018-07-14T13:47:56.368Z,1008.80
2018-07-14T13:49:07.639Z,1008.85
2018-07-14T13:50:08.663Z,1008.85
2018-07-14T13:51:13.697Z,1008.82
2018-07-14T13:52:16.265Z,1008.81
2018-07-14T13:53:23.122Z,1008.83
2018-07-14T13:54:28.223Z,1008.83
2018-07-14T13:56:39.731Z,1008.77
2018-07-14T13:59:03.918Z,1008.76
2018-07-14T13:59:54.088Z,1008.75
2018-07-14T14:02:03.932Z,1008.73
2018-07-14T14:03:11.107Z,1008.70
2018-07-14T14:05:30.473Z,1008.67
2018-07-14T14:06:35.294Z,1008.65
2018-07-14T14:07:34.482Z,1008.62
2018-07-14T14:08:52.718Z,1008.62
2018-07-14T14:09:45.963Z,1008.62
2018-07-14T14:10:54.367Z,1008.63
2018-07-14T14:11:53.043Z,1008.62
2018-07-14T14:12:58.682Z,1008.62
2018-07-14T14:14:11.591Z,1008.64
2018-07-14T14:15:17.845Z,1008.61
2018-07-14T14:17:19.805Z,1008.60
2018-07-14T14:18:30.050Z,1008.58
2018-07-14T14:19:36.610Z,1008.59
2018-07-14T14:20:39.696Z,1008.57
2018-07-14T14:21:54.338Z,1008.58
2018-07-14T14:23:05.303Z,1008.59
2018-07-14T14:24:11.251Z,1008.56
2018-07-14T14:25:08.741Z,1008.53
2018-07-14T14:26:27.442Z,1008.53
2018-07-14T14:27:22.840Z,1008.52
2018-07-14T14:28:20.735Z,1008.53
2018-07-14T14:29:32.793Z,1008.52
2018-07-14T14:30:46.721Z,1008.57
2018-07-14T14:31:50.241Z,1008.53
2018-07-14T14:32:57.286Z,1008.51
2018-07-14T14:34:02.245Z,1008.48
2018-07-14T14:35:04.239Z,1008.49
2018-07-14T14:36:09.692Z,1008.48
2018-07-14T14:37:20.252Z,1008.45
2018-07-14T14:38:16.473Z,1008.47
2018-07-14T14:39:27.251Z,1008.49
2018-07-14T14:40:37.247Z,1008.45
2018-07-14T14:41:40.247Z,1008.44
2018-07-14T14:42:53.247Z,1008.48
2018-07-14T14:43:52.134Z,1008.45
2018-07-14T14:45:52.746Z,1008.44
2018-07-14T14:46:55.738Z,1008.44
2018-07-14T14:48:16.845Z,1008.39
2018-07-14T14:50:21.870Z,1008.43
2018-07-14T14:51:25.975Z,1008.37
2018-07-14T14:54:47.909Z,1008.38
2018-07-14T14:55:47.505Z,1008.39
2018-07-14T14:57:56.761Z,1008.34
2018-07-14T14:59:01.755Z,1008.37
2018-07-14T15:00:05.756Z,1008.37
2018-07-14T15:01:13.142Z,1008.36
2018-07-14T15:02:27.279Z,1008.34
2018-07-14T15:04:32.764Z,1008.33
2018-07-14T15:05:37.231Z,1008.31
2018-07-14T15:06:41.763Z,1008.30
2018-07-14T15:07:47.260Z,1008.32
2018-07-14T15:08:47.259Z,1008.29
2018-07-14T15:10:03.763Z,1008.30
2018-07-14T15:10:54.377Z,1008.28
2018-07-14T15:12:03.793Z,1008.27
2018-07-14T15:13:16.813Z,1008.27
2018-07-14T15:14:19.270Z,1008.29
2018-07-14T15:15:26.773Z,1008.26
2018-07-14T15:16:25.270Z,1008.30
2018-07-14T15:18:40.767Z,1008.29
2018-07-14T15:19:47.281Z,1008.27
2018-07-14T15:21:55.268Z,1008.33
2018-07-14T15:23:07.770Z,1008.26
2018-07-14T15:25:13.770Z,1008.27